createdAt,value
2019-01-04T00:01:42.175Z,16.57
2019-01-04T00:04:25.448Z,19.97
2019-01-04T00:06:56.040Z,19.23
2019-01-04T00:09:26.298Z,17.67
2019-01-04T00:11:56.448Z,19.90
2019-01-04T00:14:27.093Z,14.97
2019-01-04T00:16:57.344Z,17.53
2019-01-04T00:19:27.764Z,17.13
2019-01-04T00:21:58.317Z,17.20
2019-01-04T00:24:29.912Z,22.30
2019-01-04T00:27:01.331Z,18.90
2019-01-04T00:29:31.718Z,19.40
2019-01-04T00:32:01.937Z,17.30
2019-01-04T00:34:32.493Z,18.50
2019-01-04T00:37:02.881Z,19.57
2019-01-04T00:39:33.227Z,20.47
2019-01-04T00:42:03.832Z,19.30
2019-01-04T00:44:34.339Z,18.70
2019-01-04T00:47:04.645Z,24.80
2019-01-04T00:49:34.981Z,18.97
2019-01-04T00:52:05.375Z,15.93
2019-01-04T00:54:35.715Z,20.33
2019-01-04T00:58:24.093Z,19.10
2019-01-04T01:01:53.633Z,17.47
2019-01-04T01:05:35.805Z,17.70
2019-01-04T01:08:53.538Z,21.53
2019-01-04T01:12:43.492Z,20.07
2019-01-04T01:15:53.673Z,18.17
2019-01-04T01:20:00.329Z,18.30
2019-01-04T01:23:29.139Z,19.27
2019-01-04T01:26:55.529Z,18.47
2019-01-04T01:30:29.184Z,19.90
2019-01-04T01:33:55.335Z,18.73
2019-01-04T01:37:12.838Z,20.30
2019-01-04T01:40:34.519Z,20.10
2019-01-04T01:44:19.433Z,21.10
2019-01-04T01:47:33.399Z,23.37
2019-01-04T01:50:50.826Z,24.30
2019-01-04T01:53:20.791Z,22.87
2019-01-04T01:55:51.044Z,21.83
2019-01-04T01:58:21.641Z,24.00
2019-01-04T02:00:52.343Z,23.40
2019-01-04T02:03:22.601Z,27.53
2019-01-04T02:05:52.834Z,26.10
2019-01-04T02:08:23.161Z,24.20
2019-01-04T02:10:53.313Z,26.23
2019-01-04T02:13:23.480Z,25.67
2019-01-04T02:15:55.174Z,24.43
2019-01-04T02:18:25.395Z,27.90
2019-01-04T02:20:55.651Z,25.73
2019-01-04T02:23:26.475Z,25.23
2019-01-04T02:25:56.796Z,25.57
2019-01-04T02:28:27.424Z,26.70
2019-01-04T02:30:57.878Z,24.80
2019-01-04T02:33:28.587Z,23.87
2019-01-04T02:35:58.739Z,24.13
2019-01-04T02:38:28.975Z,22.87
2019-01-04T02:40:59.557Z,21.97
2019-01-04T02:43:30.231Z,21.70
2019-01-04T02:46:00.392Z,22.67
2019-01-04T02:48:31.166Z,19.87
2019-01-04T02:51:01.405Z,21.33
2019-01-04T02:53:31.610Z,17.93
2019-01-04T02:56:01.823Z,17.30
2019-01-04T02:58:32.356Z,18.30
2019-01-04T03:01:02.584Z,18.97
2019-01-04T03:03:33.102Z,19.53
2019-01-04T03:06:03.422Z,21.33
2019-01-04T03:08:33.765Z,17.10
2019-01-04T03:11:03.969Z,23.77
2019-01-04T03:13:34.229Z,20.07
2019-01-04T03:16:04.616Z,18.73
2019-01-04T03:18:35.304Z,18.50
2019-01-04T03:21:05.546Z,17.83
2019-01-04T03:23:36.386Z,21.43
2019-01-04T03:26:06.655Z,22.13
2019-01-04T03:28:37.502Z,18.67
2019-01-04T03:31:07.806Z,21.67
2019-01-04T03:33:38.094Z,16.40
2019-01-04T03:36:08.486Z,20.73
2019-01-04T03:38:38.875Z,17.27
2019-01-04T03:41:09.253Z,18.90
2019-01-04T03:43:39.786Z,17.40
2019-01-04T03:46:10.033Z,16.07
2019-01-04T03:48:40.561Z,19.03
2019-01-04T03:51:11.372Z,16.87
2019-01-04T03:53:41.532Z,19.60
2019-01-04T03:56:11.683Z,19.63
2019-01-04T03:58:42.128Z,16.23
2019-01-04T04:01:12.434Z,15.83
2019-01-04T04:03:42.774Z,16.20
2019-01-04T04:06:13.325Z,19.77
2019-01-04T04:08:43.848Z,23.33
2019-01-04T04:11:14.288Z,15.67
2019-01-04T04:13:44.505Z,16.77
2019-01-04T04:16:14.791Z,17.97
2019-01-04T04:18:45.002Z,16.97
2019-01-04T04:21:15.460Z,20.53
2019-01-04T04:23:45.935Z,20.27
2019-01-04T04:26:16.073Z,16.70
2019-01-04T04:28:46.649Z,17.83
2019-01-04T04:31:16.826Z,15.77
2019-01-04T04:33:47.092Z,16.67
2019-01-04T04:36:17.215Z,16.27
2019-01-04T04:38:47.521Z,17.03
2019-01-04T04:41:17.802Z,18.20
2019-01-04T04:43:48.302Z,20.30
2019-01-04T04:46:18.497Z,18.90
2019-01-04T04:48:48.840Z,20.47
2019-01-04T04:51:19.321Z,19.63
2019-01-04T04:53:49.464Z,18.70
2019-01-04T04:56:20.172Z,18.30
2019-01-04T04:58:50.829Z,20.10
2019-01-04T05:01:21.294Z,24.27
2019-01-04T05:03:52.160Z,16.93
2019-01-04T05:06:22.497Z,19.93
2019-01-04T05:08:52.725Z,18.30
2019-01-04T05:11:23.053Z,17.80
2019-01-04T05:13:53.402Z,18.27
2019-01-04T05:16:23.757Z,21.10
2019-01-04T05:18:54.022Z,19.97
2019-01-04T05:21:24.241Z,20.93
2019-01-04T05:23:54.610Z,25.30
2019-01-04T05:26:24.848Z,18.57
2019-01-04T05:28:55.156Z,19.70
2019-01-04T05:31:25.649Z,21.07
2019-01-04T05:33:55.981Z,25.23
2019-01-04T05:36:26.347Z,23.83
2019-01-04T05:38:56.877Z,21.77
2019-01-04T05:41:27.714Z,20.50
2019-01-04T05:43:58.659Z,22.40
2019-01-04T05:46:29.122Z,23.20
2019-01-04T05:48:59.422Z,23.63
2019-01-04T05:51:29.707Z,21.17
2019-01-04T05:54:00.245Z,20.70
2019-01-04T05:56:30.459Z,25.93
2019-01-04T05:59:00.957Z,22.43
2019-01-04T06:01:31.671Z,21.40
2019-01-04T06:04:02.501Z,22.93
2019-01-04T06:06:33.586Z,22.77
2019-01-04T06:09:04.228Z,23.30
2019-01-04T06:11:35.083Z,21.80
2019-01-04T06:14:05.493Z,23.57
2019-01-04T06:16:35.679Z,22.23
2019-01-04T06:19:06.198Z,21.43
2019-01-04T06:21:37.268Z,21.40
2019-01-04T06:24:07.980Z,27.00
2019-01-04T06:26:38.589Z,23.27
2019-01-04T06:29:09.045Z,25.13
2019-01-04T06:31:39.337Z,25.67
2019-01-04T06:34:09.575Z,22.30
2019-01-04T06:36:39.888Z,22.90
2019-01-04T06:39:10.472Z,25.10
2019-01-04T06:41:41.028Z,22.70
2019-01-04T06:44:11.310Z,22.93
2019-01-04T06:47:18.169Z,24.80
2019-01-04T06:49:50.033Z,29.80
2019-01-04T06:52:22.269Z,31.40
2019-01-04T06:55:52.943Z,30.90
2019-01-04T06:58:23.611Z,36.50
2019-01-04T07:00:54.422Z,24.23
2019-01-04T07:03:25.094Z,25.03
2019-01-04T07:05:58.729Z,24.27
2019-01-04T07:08:29.140Z,29.97
2019-01-04T07:10:59.455Z,27.57
2019-01-04T07:13:29.793Z,27.77
2019-01-04T07:16:00.477Z,29.20
2019-01-04T07:18:30.753Z,31.77
2019-01-04T07:21:00.961Z,32.37
2019-01-04T07:23:31.470Z,29.33
2019-01-04T07:26:01.952Z,42.87
2019-01-04T07:28:32.219Z,28.10
2019-01-04T07:31:02.474Z,29.07
2019-01-04T07:33:32.666Z,26.77
2019-01-04T07:36:03.470Z,29.97
2019-01-04T07:38:34.148Z,27.60
2019-01-04T07:41:04.786Z,29.97
2019-01-04T07:43:35.412Z,27.80
2019-01-04T07:46:05.779Z,28.50
2019-01-04T07:48:36.380Z,33.63
2019-01-04T07:51:06.734Z,24.87
2019-01-04T07:53:36.972Z,26.70
2019-01-04T07:56:07.259Z,27.83
2019-01-04T07:58:37.492Z,30.40
2019-01-04T08:01:08.117Z,31.73
2019-01-04T08:03:38.427Z,27.37
2019-01-04T08:06:08.779Z,29.90
2019-01-04T08:08:39.030Z,27.47
2019-01-04T08:11:10.091Z,29.40
2019-01-04T08:13:40.344Z,33.53
2019-01-04T08:16:10.854Z,30.97
2019-01-04T08:18:41.190Z,31.63
2019-01-04T08:21:12.491Z,29.67
2019-01-04T08:23:43.615Z,32.90
2019-01-04T08:26:14.062Z,31.03
2019-01-04T08:28:44.352Z,31.43
2019-01-04T08:31:14.530Z,31.47
2019-01-04T08:33:45.050Z,36.20
2019-01-04T08:36:15.408Z,37.27
2019-01-04T08:38:45.740Z,35.20
2019-01-04T08:41:16.070Z,30.73
2019-01-04T08:43:46.362Z,33.23
2019-01-04T08:46:16.732Z,36.03
2019-01-04T08:48:47.391Z,30.93
2019-01-04T08:51:17.875Z,31.63
2019-01-04T08:54:08.566Z,33.83
2019-01-04T08:56:40.071Z,32.97
2019-01-04T08:59:32.040Z,29.70
2019-01-04T09:02:02.358Z,29.77
2019-01-04T09:04:32.618Z,30.37
2019-01-04T09:07:02.851Z,29.33
2019-01-04T09:09:33.423Z,26.43
2019-01-04T09:12:03.715Z,30.43
2019-01-04T09:14:33.904Z,30.50
2019-01-04T09:17:04.051Z,27.43
2019-01-04T09:19:34.996Z,28.30
2019-01-04T09:22:05.218Z,29.53
2019-01-04T09:24:35.778Z,27.77
2019-01-04T09:27:06.375Z,26.43
2019-01-04T09:29:37.211Z,25.10
2019-01-04T09:32:07.613Z,28.73
2019-01-04T09:34:37.813Z,24.90
2019-01-04T09:37:08.293Z,26.33
2019-01-04T09:39:38.699Z,25.57
2019-01-04T09:42:15.324Z,28.50
2019-01-04T09:44:46.860Z,25.60
2019-01-04T09:47:17.435Z,25.03
2019-01-04T09:49:47.782Z,27.83
2019-01-04T09:52:18.084Z,25.50
2019-01-04T09:54:48.355Z,25.77
2019-01-04T09:57:23.469Z,24.67
2019-01-04T09:59:51.061Z,30.53
2019-01-04T10:02:21.481Z,29.00
2019-01-04T10:04:51.773Z,29.37
2019-01-04T10:07:22.328Z,29.30
2019-01-04T10:09:52.481Z,28.70
2019-01-04T10:12:22.832Z,28.67
2019-01-04T10:14:53.023Z,31.93
2019-01-04T10:17:23.152Z,30.77
2019-01-04T10:19:53.329Z,33.10
2019-01-04T10:22:23.623Z,35.37
2019-01-04T10:24:53.919Z,35.60
2019-01-04T10:27:24.081Z,32.07
2019-01-04T10:29:54.399Z,35.53
2019-01-04T10:32:25.079Z,34.60
2019-01-04T10:34:55.242Z,35.87
2019-01-04T10:37:25.460Z,32.43
2019-01-04T10:39:55.716Z,35.67
2019-01-04T10:42:26.201Z,36.43
2019-01-04T10:44:56.389Z,37.97
2019-01-04T10:47:26.763Z,31.97
2019-01-04T10:49:56.993Z,32.73
2019-01-04T10:52:27.234Z,40.03
2019-01-04T10:54:57.514Z,34.57
2019-01-04T10:57:28.049Z,43.93
2019-01-04T10:59:58.546Z,43.63
2019-01-04T11:02:28.745Z,41.07
2019-01-04T11:04:58.907Z,45.53
2019-01-04T11:07:29.192Z,39.93
2019-01-04T11:09:59.461Z,35.47
2019-01-04T11:12:30.024Z,36.63
2019-01-04T11:15:00.201Z,37.93
2019-01-04T11:17:30.483Z,38.37
2019-01-04T11:20:01.278Z,36.77
2019-01-04T11:23:29.971Z,36.67
2019-01-04T11:26:35.613Z,35.77
2019-01-04T11:30:02.176Z,36.23
2019-01-04T11:33:15.492Z,33.03
2019-01-04T11:37:16.520Z,37.83
2019-01-04T11:40:26.567Z,34.53
2019-01-04T11:44:07.580Z,33.80
2019-01-04T11:47:20.047Z,31.57
2019-01-04T11:50:38.090Z,33.77
2019-01-04T11:53:15.931Z,35.60
2019-01-04T11:55:46.512Z,35.23
2019-01-04T11:58:17.043Z,31.00
2019-01-04T12:00:47.387Z,33.70
2019-01-04T12:03:17.501Z,32.60
2019-01-04T12:05:47.812Z,32.57
2019-01-04T12:08:18.040Z,34.03
2019-01-04T12:10:48.345Z,32.20
2019-01-04T12:13:18.482Z,32.00
2019-01-04T12:15:48.651Z,33.70
2019-01-04T12:18:18.850Z,31.30
2019-01-04T12:20:49.384Z,28.83
2019-01-04T12:23:19.800Z,31.87
2019-01-04T12:25:50.025Z,30.50
2019-01-04T12:28:20.429Z,29.40
2019-01-04T12:30:50.593Z,33.60
2019-01-04T12:33:20.796Z,30.17
2019-01-04T12:35:51.040Z,31.77
2019-01-04T12:38:21.397Z,33.10
2019-01-04T12:40:51.687Z,32.73
2019-01-04T12:43:21.831Z,38.60
2019-01-04T12:45:52.119Z,42.27
2019-01-04T12:48:23.063Z,36.00
2019-01-04T12:50:53.347Z,37.37
2019-01-04T12:53:23.499Z,33.50
2019-01-04T12:55:53.663Z,31.83
2019-01-04T12:58:23.884Z,28.47
2019-01-04T13:00:54.988Z,30.87
2019-01-04T13:03:25.211Z,32.90
2019-01-04T13:05:55.451Z,32.43
2019-01-04T13:08:25.573Z,29.43
2019-01-04T13:10:55.883Z,26.93
2019-01-04T13:13:26.199Z,31.70
2019-01-04T13:15:56.410Z,29.97
2019-01-04T13:18:26.615Z,30.80
2019-01-04T13:20:57.279Z,30.10
2019-01-04T13:23:27.532Z,32.83
2019-01-04T13:25:58.753Z,32.33
2019-01-04T13:28:28.972Z,28.40
2019-01-04T13:30:59.177Z,29.70
2019-01-04T13:33:29.300Z,31.33
2019-01-04T13:35:59.740Z,28.67
2019-01-04T13:38:30.149Z,29.63
2019-01-04T13:41:00.451Z,27.93
2019-01-04T13:43:31.059Z,27.90
2019-01-04T13:46:02.427Z,31.20
2019-01-04T13:48:32.813Z,30.47
2019-01-04T13:51:03.090Z,30.10
2019-01-04T13:53:33.187Z,31.47
2019-01-04T13:56:03.453Z,31.73
2019-01-04T13:58:33.610Z,32.83
2019-01-04T14:01:03.791Z,36.73
2019-01-04T14:03:34.198Z,31.20
2019-01-04T14:06:04.772Z,30.37
2019-01-04T14:08:35.648Z,31.47
2019-01-04T14:11:06.511Z,32.03
2019-01-04T14:13:36.901Z,31.20
2019-01-04T14:16:07.499Z,32.20
2019-01-04T14:18:38.115Z,33.57
2019-01-04T14:21:08.331Z,35.60
2019-01-04T14:23:38.590Z,31.80
2019-01-04T14:26:09.225Z,32.90
2019-01-04T14:28:39.484Z,30.97
2019-01-04T14:31:09.836Z,25.53
2019-01-04T14:33:40.147Z,25.37
2019-01-04T14:36:10.448Z,31.30
2019-01-04T14:38:40.637Z,26.43
2019-01-04T14:41:10.913Z,26.63
2019-01-04T14:43:41.438Z,26.13
2019-01-04T14:46:11.920Z,29.80
2019-01-04T14:48:42.579Z,27.60
2019-01-04T14:51:12.921Z,26.07
2019-01-04T14:53:43.477Z,26.50
2019-01-04T14:56:14.465Z,28.63
2019-01-04T14:58:45.193Z,27.03
2019-01-04T15:01:15.424Z,28.10
2019-01-04T15:03:45.764Z,28.40
2019-01-04T15:06:16.104Z,29.73
2019-01-04T15:08:46.373Z,29.83
2019-01-04T15:11:16.479Z,31.10
2019-01-04T15:13:46.734Z,28.13
2019-01-04T15:16:17.017Z,30.17
2019-01-04T15:18:47.522Z,27.53
2019-01-04T15:21:17.815Z,27.53
2019-01-04T15:23:48.052Z,30.47
2019-01-04T15:26:18.716Z,27.73
2019-01-04T15:28:48.911Z,31.77
2019-01-04T15:31:19.443Z,31.97
2019-01-04T15:33:49.779Z,27.77
2019-01-04T15:36:20.375Z,24.50
2019-01-04T15:38:50.669Z,24.27
2019-01-04T15:41:21.036Z,26.87
2019-01-04T15:43:51.322Z,32.53
2019-01-04T15:46:21.639Z,29.47
2019-01-04T15:48:51.938Z,25.10
2019-01-04T15:51:22.601Z,28.33
2019-01-04T15:53:53.142Z,30.80
2019-01-04T15:56:23.497Z,31.17
2019-01-04T15:58:53.920Z,26.73
2019-01-04T16:01:24.199Z,28.60
2019-01-04T16:03:54.617Z,31.33
2019-01-04T16:06:25.280Z,29.97
2019-01-04T16:08:55.675Z,29.73
2019-01-04T16:11:26.258Z,30.73
2019-01-04T16:13:56.664Z,31.70
2019-01-04T16:16:27.134Z,31.03
2019-01-04T16:18:57.287Z,31.83
2019-01-04T16:21:27.705Z,27.67
2019-01-04T16:23:58.011Z,30.60
2019-01-04T16:26:28.237Z,29.83
2019-01-04T16:28:58.581Z,32.20
2019-01-04T16:31:28.852Z,32.33
2019-01-04T16:33:59.507Z,33.27
2019-01-04T16:36:29.839Z,30.57
2019-01-04T16:39:00.333Z,30.70
2019-01-04T16:41:30.750Z,34.70
2019-01-04T16:44:07.295Z,32.27
2019-01-04T16:46:34.094Z,32.07
2019-01-04T16:49:04.509Z,32.63
2019-01-04T16:51:34.799Z,29.73
2019-01-04T16:54:05.114Z,30.83
2019-01-04T16:56:35.723Z,32.83
2019-01-04T16:59:06.051Z,31.60
2019-01-04T17:01:36.826Z,35.53
2019-01-04T17:04:07.494Z,34.83
2019-01-04T17:06:37.842Z,31.20
2019-01-04T17:09:09.738Z,29.90
2019-01-04T17:11:40.011Z,30.63
2019-01-04T17:14:10.197Z,32.27
2019-01-04T17:16:40.837Z,31.67
2019-01-04T17:19:11.111Z,30.43
2019-01-04T17:21:41.411Z,29.10
2019-01-04T17:24:12.048Z,31.27
2019-01-04T17:26:42.426Z,30.67
2019-01-04T17:29:12.689Z,27.87
2019-01-04T17:31:43.164Z,29.70
2019-01-04T17:34:13.571Z,34.10
2019-01-04T17:36:43.876Z,32.63
2019-01-04T17:39:14.522Z,37.67
2019-01-04T17:41:44.634Z,34.37
2019-01-04T17:44:15.085Z,33.10
2019-01-04T17:46:45.263Z,34.20
2019-01-04T17:49:15.496Z,28.40
2019-01-04T17:51:54.514Z,32.27
2019-01-04T17:54:24.784Z,31.57
2019-01-04T17:56:55.302Z,33.07
2019-01-04T17:59:25.769Z,29.80
2019-01-04T18:01:56.224Z,35.37
2019-01-04T18:04:26.659Z,33.63
2019-01-04T18:06:56.913Z,31.10
2019-01-04T18:09:27.342Z,34.90
2019-01-04T18:11:57.852Z,32.87
2019-01-04T18:14:28.221Z,34.00
2019-01-04T18:16:58.526Z,37.43
2019-01-04T18:19:29.031Z,34.07
2019-01-04T18:21:59.291Z,31.20
2019-01-04T18:24:29.083Z,33.50
2019-01-04T18:26:59.471Z,35.53
2019-01-04T18:29:29.877Z,34.83
2019-01-04T18:32:00.186Z,32.30
2019-01-04T18:34:30.502Z,34.27
2019-01-04T18:37:01.093Z,37.60
2019-01-04T18:39:31.394Z,35.33
2019-01-04T18:42:01.693Z,37.43
2019-01-04T18:44:31.902Z,38.30
2019-01-04T18:47:03.219Z,38.20
2019-01-04T18:49:33.608Z,38.53
2019-01-04T18:52:04.185Z,36.23
2019-01-04T18:54:34.841Z,33.47
2019-01-04T18:57:05.113Z,33.73
2019-01-04T18:59:35.534Z,34.63
2019-01-04T19:02:05.988Z,32.43
2019-01-04T19:04:37.210Z,34.50
2019-01-04T19:07:07.804Z,34.97
2019-01-04T19:09:38.065Z,33.83
2019-01-04T19:12:08.502Z,33.70
2019-01-04T19:14:40.027Z,33.70
2019-01-04T19:17:10.187Z,32.93
2019-01-04T19:19:40.813Z,31.10
2019-01-04T19:22:11.248Z,30.60
2019-01-04T19:24:42.115Z,34.73
2019-01-04T19:27:12.469Z,31.23
2019-01-04T19:29:43.057Z,34.37
2019-01-04T19:32:13.264Z,33.90
2019-01-04T19:34:43.683Z,35.87
2019-01-04T19:37:14.104Z,27.80
2019-01-04T19:39:44.577Z,34.37
2019-01-04T19:42:14.964Z,29.53
2019-01-04T19:44:45.442Z,30.47
2019-01-04T19:47:15.707Z,27.17
2019-01-04T19:49:46.640Z,29.40
2019-01-04T19:52:16.928Z,26.70
2019-01-04T19:54:47.374Z,27.00
2019-01-04T19:57:17.746Z,25.10
2019-01-04T19:59:48.125Z,25.03
2019-01-04T20:02:18.529Z,25.27
2019-01-04T20:04:48.780Z,27.17
2019-01-04T20:08:13.313Z,24.97
2019-01-04T20:12:18.880Z,21.07
2019-01-04T20:15:57.311Z,20.27
2019-01-04T20:18:47.766Z,21.97
2019-01-04T20:21:37.368Z,24.43
2019-01-04T20:24:29.330Z,25.87
2019-01-04T20:27:19.086Z,26.93
2019-01-04T20:30:07.089Z,26.27
2019-01-04T20:32:55.108Z,26.50
2019-01-04T20:35:43.418Z,23.43
2019-01-04T20:38:39.195Z,27.50
2019-01-04T20:41:27.155Z,25.57
2019-01-04T20:44:25.566Z,26.97
2019-01-04T20:47:13.900Z,24.47
2019-01-04T20:50:07.257Z,26.40
2019-01-04T20:53:00.023Z,28.80
2019-01-04T20:55:48.109Z,24.17
2019-01-04T20:58:36.304Z,31.87
2019-01-04T21:01:24.463Z,30.60
2019-01-04T21:04:12.615Z,26.63
2019-01-04T21:07:04.910Z,27.73
2019-01-04T21:10:00.152Z,28.90
2019-01-04T21:12:57.488Z,24.77
2019-01-04T21:15:50.135Z,28.00
2019-01-04T21:18:35.754Z,25.43
2019-01-04T21:21:24.116Z,23.63
2019-01-04T21:24:12.228Z,25.13
2019-01-04T21:27:00.592Z,24.57
2019-01-04T21:29:50.145Z,27.70
2019-01-04T21:32:40.628Z,25.80
2019-01-04T21:35:28.561Z,28.10
2019-01-04T21:38:17.750Z,26.53
2019-01-04T21:41:07.149Z,25.83
2019-01-04T21:43:55.138Z,26.90
2019-01-04T21:46:53.703Z,26.70
2019-01-04T21:49:48.980Z,23.50
2019-01-04T21:52:37.338Z,24.37
2019-01-04T21:55:33.114Z,24.67
2019-01-04T21:58:22.610Z,25.70
2019-01-04T22:01:10.509Z,24.50
2019-01-04T22:04:23.757Z,27.07
2019-01-04T22:07:17.612Z,24.57
2019-01-04T22:10:24.854Z,27.23
2019-01-04T22:13:05.699Z,26.33
2019-01-04T22:15:53.490Z,24.07
2019-01-04T22:18:41.184Z,27.30
2019-01-04T22:21:29.435Z,25.47
2019-01-04T22:24:33.835Z,31.70
2019-01-04T22:27:21.635Z,29.73
2019-01-04T22:30:16.909Z,27.43
2019-01-04T22:33:08.821Z,27.40
2019-01-04T22:36:03.843Z,31.13
2019-01-04T22:38:59.498Z,26.83
2019-01-04T22:41:48.266Z,32.00
2019-01-04T22:44:43.801Z,28.43
2019-01-04T22:47:38.048Z,30.93
2019-01-04T22:50:25.859Z,28.00
2019-01-04T22:53:13.787Z,30.40
2019-01-04T22:56:02.018Z,31.03
2019-01-04T22:58:47.542Z,31.60
2019-01-04T23:01:36.741Z,30.13
2019-01-04T23:04:20.779Z,27.90
2019-01-04T23:07:08.831Z,25.97
2019-01-04T23:09:54.897Z,26.13
2019-01-04T23:12:43.524Z,25.77
2019-01-04T23:15:31.601Z,24.43
2019-01-04T23:18:19.611Z,24.00
2019-01-04T23:21:08.767Z,22.27
2019-01-04T23:24:00.597Z,21.37
2019-01-04T23:27:05.509Z,21.13
2019-01-04T23:29:57.457Z,23.93
2019-01-04T23:32:45.340Z,19.73
2019-01-04T23:35:29.789Z,23.10
2019-01-04T23:38:22.730Z,21.63
2019-01-04T23:41:22.342Z,22.83
2019-01-04T23:44:07.314Z,20.13
2019-01-04T23:47:03.329Z,23.93
2019-01-04T23:49:55.366Z,25.00
2019-01-04T23:52:43.296Z,18.93
2019-01-04T23:55:41.524Z,26.53
2019-01-04T23:58:39.623Z,25.07
